Time;durP1;ratioP1;P1;durP2;ratioP2;P2;SDS_P1;SDS_P2;PMS_P1;PMS_P2;Temp;Humidity;BMP_temperature;BMP_pressure;BME280_temperature;BME280_humidity;BME280_pressure;Samples;Min_cycle;Max_cycle;Signal;HPM_P1;HPM_P2
2022/03/12 00:00:26;;;;;;;5.65;4.90;;;13.70;87.90;;;;;;7340635;19;109517;-80
2022/03/12 00:02:54;;;;;;;5.25;4.70;;;13.70;88.70;;;;;;7342819;19;110412;-81
2022/03/12 00:05:22;;;;;;;6.93;4.65;;;13.60;89.70;;;;;;7342832;19;108778;-81
2022/03/12 00:07:51;;;;;;;5.00;4.50;;;13.60;89.70;;;;;;7343685;19;109448;-81
2022/03/12 00:10:22;;;;;;;5.28;4.78;;;13.60;90.10;;;;;;7340705;19;111406;-81
2022/03/12 00:12:50;;;;;;;6.90;4.70;;;13.60;90.40;;;;;;7341527;19;108926;-81
2022/03/12 00:15:18;;;;;;;6.00;4.03;;;13.50;90.90;;;;;;7344482;19;109312;-81
2022/03/12 00:17:45;;;;;;;6.28;4.45;;;13.50;91.10;;;;;;7341635;19;109045;-81
2022/03/12 00:20:16;;;;;;;6.63;4.57;;;13.40;91.30;;;;;;7342121;19;111668;-81
2022/03/12 00:22:46;;;;;;;6.95;4.47;;;13.40;91.70;;;;;;7339475;19;110118;-81
2022/03/12 00:25:19;;;;;;;9.05;4.85;;;13.40;91.90;;;;;;7342289;19;110904;-80
2022/03/12 00:27:46;;;;;;;4.90;4.38;;;13.40;92.00;;;;;;7342965;19;109507;-81
2022/03/12 00:30:22;;;;;;;5.13;4.63;;;13.40;92.40;;;;;;7339292;19;110260;-81
2022/03/12 00:32:51;;;;;;;5.10;4.28;;;13.40;92.80;;;;;;7342469;19;109280;-80
2022/03/12 00:35:20;;;;;;;5.05;4.55;;;13.40;92.80;;;;;;7341362;19;109451;-81
2022/03/12 00:37:48;;;;;;;5.13;4.63;;;13.30;93.10;;;;;;7347286;19;110149;-81
2022/03/12 00:40:20;;;;;;;4.60;4.10;;;13.30;93.30;;;;;;7341001;19;109571;-81
2022/03/12 00:42:47;;;;;;;5.05;4.47;;;13.30;93.30;;;;;;7339919;19;110332;-80
2022/03/12 00:45:15;;;;;;;5.28;4.00;;;13.30;93.60;;;;;;7341151;19;108386;-80
2022/03/12 00:47:43;;;;;;;4.57;4.15;;;13.30;93.80;;;;;;7340246;19;109807;-81
2022/03/12 00:50:10;;;;;;;5.03;4.30;;;13.40;93.80;;;;;;7336512;19;111139;-81
2022/03/12 00:52:38;;;;;;;4.75;4.22;;;13.30;94.00;;;;;;7342302;19;108612;-81
2022/03/12 00:55:05;;;;;;;4.50;3.80;;;13.30;94.00;;;;;;7340560;19;109441;-80
2022/03/12 00:57:32;;;;;;;5.93;4.57;;;13.30;94.00;;;;;;7342444;19;110112;-80
2022/03/12 00:59:59;;;;;;;5.47;4.13;;;13.30;94.30;;;;;;7346029;19;109345;-81
2022/03/12 01:02:26;;;;;;;5.25;4.20;;;13.30;94.40;;;;;;7340084;19;110237;-81
2022/03/12 01:04:54;;;;;;;5.10;4.20;;;13.20;94.60;;;;;;7340929;19;108272;-80
2022/03/12 01:07:21;;;;;;;4.53;3.92;;;13.20;94.80;;;;;;7340923;19;112603;-80
2022/03/12 01:09:48;;;;;;;4.10;3.70;;;13.10;94.90;;;;;;7339062;19;110516;-80
2022/03/12 01:12:15;;;;;;;4.82;3.90;;;13.20;95.00;;;;;;7341453;19;109607;-80
2022/03/12 01:14:42;;;;;;;5.10;4.13;;;13.20;95.00;;;;;;7340068;19;109558;-80
2022/03/12 01:17:09;;;;;;;4.20;3.80;;;13.10;95.20;;;;;;7340303;19;111456;-81
2022/03/12 01:19:38;;;;;;;3.88;3.40;;;13.10;95.30;;;;;;7338075;19;109204;-80
2022/03/12 01:22:06;;;;;;;4.47;3.88;;;13.10;95.50;;;;;;7345607;19;109511;-81
2022/03/12 01:24:34;;;;;;;4.25;3.72;;;13.00;95.70;;;;;;7339534;19;109050;-81
2022/03/12 01:27:01;;;;;;;3.95;3.60;;;12.90;95.80;;;;;;7341675;19;109480;-81
2022/03/12 01:29:28;;;;;;;4.00;3.17;;;12.90;96.20;;;;;;7338625;19;109959;-81
2022/03/12 01:31:55;;;;;;;4.53;3.80;;;12.90;96.30;;;;;;7340018;19;108434;-81
2022/03/12 01:34:22;;;;;;;4.70;4.00;;;12.90;96.40;;;;;;7337892;19;109829;-81
2022/03/12 01:36:49;;;;;;;4.18;3.78;;;12.80;96.60;;;;;;7346205;19;110052;-80
2022/03/12 01:39:27;;;;;;;3.85;3.40;;;12.80;96.70;;;;;;7347661;19;108374;-79
2022/03/12 01:41:55;;;;;;;3.95;3.28;;;12.80;96.60;;;;;;7345752;19;109555;-80
2022/03/12 01:44:22;;;;;;;4.38;3.50;;;12.90;96.70;;;;;;7350117;19;110301;-81
2022/03/12 01:46:50;;;;;;;3.95;3.55;;;12.90;96.80;;;;;;7346382;19;109627;-81
2022/03/12 01:49:20;;;;;;;4.03;3.50;;;12.80;96.80;;;;;;7344121;19;113142;-81
2022/03/12 01:51:50;;;;;;;5.07;3.50;;;12.80;97.00;;;;;;7346577;19;108563;-80
2022/03/12 01:54:23;;;;;;;3.28;2.97;;;12.80;97.00;;;;;;7346668;19;109230;-80
2022/03/12 01:56:53;;;;;;;4.35;3.50;;;12.80;97.00;;;;;;7344273;19;112322;-80
2022/03/12 01:59:21;;;;;;;5.35;3.63;;;12.80;96.90;;;;;;7346672;19;108965;-80
2022/03/12 02:01:52;;;;;;;4.75;3.03;;;12.80;97.00;;;;;;7346890;19;110629;-80
2022/03/12 02:04:21;;;;;;;3.10;2.80;;;12.80;96.90;;;;;;7346935;19;109768;-80
2022/03/12 02:06:50;;;;;;;3.58;2.88;;;12.80;97.00;;;;;;7350749;19;108436;-80
2022/03/12 02:09:18;;;;;;;3.60;3.30;;;12.70;97.00;;;;;;7345696;19;110352;-80
2022/03/12 02:11:51;;;;;;;3.72;3.33;;;12.80;97.10;;;;;;7345575;19;108727;-80
2022/03/12 02:14:26;;;;;;;3.20;2.90;;;12.80;97.10;;;;;;7345902;19;109586;-81
2022/03/12 02:17:00;;;;;;;4.30;2.95;;;12.70;97.30;;;;;;7345955;19;110182;-80
2022/03/12 02:19:29;;;;;;;3.97;3.03;;;12.70;97.20;;;;;;7346057;19;108911;-80
2022/03/12 02:22:13;;;;;;;4.05;3.00;;;12.70;97.40;;;;;;7343808;19;109792;-80
2022/03/12 02:24:41;;;;;;;3.83;3.42;;;12.70;97.50;;;;;;7343826;19;111121;-80
2022/03/12 02:27:10;;;;;;;4.00;3.30;;;12.70;97.40;;;;;;7350410;19;108453;-80
2022/03/12 02:29:40;;;;;;;3.65;3.05;;;12.60;97.50;;;;;;7344915;19;110150;-80
2022/03/12 02:32:10;;;;;;;3.33;3.00;;;12.60;97.70;;;;;;7344240;19;109724;-80
2022/03/12 02:34:48;;;;;;;3.50;2.97;;;12.60;97.70;;;;;;7345770;19;110933;-80
2022/03/12 02:37:32;;;;;;;4.65;2.92;;;12.50;97.80;;;;;;7341687;19;110576;-80
2022/03/12 02:40:09;;;;;;;3.50;2.90;;;12.40;98.20;;;;;;7344954;19;108286;-81
2022/03/12 02:42:38;;;;;;;2.60;2.40;;;12.40;98.20;;;;;;7344691;19;109686;-80
2022/03/12 02:45:08;;;;;;;2.95;2.63;;;12.40;98.30;;;;;;7342643;19;109740;-80
2022/03/12 02:47:40;;;;;;;3.28;2.95;;;12.40;98.20;;;;;;7344139;19;109189;-80
2022/03/12 02:50:09;;;;;;;3.10;2.75;;;12.40;98.30;;;;;;7348139;19;110419;-80
2022/03/12 02:52:41;;;;;;;3.20;2.90;;;12.40;98.40;;;;;;7346500;19;108443;-81
2022/03/12 02:55:22;;;;;;;4.45;2.63;;;12.30;98.50;;;;;;7345558;19;109431;-80
2022/03/12 02:57:50;;;;;;;3.70;3.22;;;12.30;98.60;;;;;;7345124;19;111162;-80
2022/03/12 03:00:19;;;;;;;3.33;2.90;;;12.30;98.70;;;;;;7345388;19;108845;-80
2022/03/12 03:02:50;;;;;;;3.28;2.97;;;12.30;98.60;;;;;;7345004;19;109448;-81
2022/03/12 03:05:23;;;;;;;3.67;3.30;;;12.30;98.80;;;;;;7344847;19;110265;-80
2022/03/12 03:07:56;;;;;;;4.97;3.15;;;12.30;98.70;;;;;;7342767;19;108557;-80
2022/03/12 03:10:30;;;;;;;3.30;3.00;;;12.30;98.60;;;;;;7342221;19;110061;-80
2022/03/12 03:12:58;;;;;;;3.00;2.67;;;12.30;98.70;;;;;;7350276;19;110529;-79
2022/03/12 03:15:25;;;;;;;3.92;2.92;;;12.30;98.90;;;;;;7342046;19;112253;-80
2022/03/12 03:17:53;;;;;;;3.40;3.10;;;12.20;99.00;;;;;;7341341;19;110563;-80
2022/03/12 03:20:20;;;;;;;3.35;3.00;;;12.20;98.90;;;;;;7343566;19;109048;-80
2022/03/12 03:22:47;;;;;;;3.20;2.75;;;12.20;98.90;;;;;;7343970;19;109831;-80
2022/03/12 03:25:14;;;;;;;3.35;2.40;;;12.20;98.90;;;;;;7343766;19;111300;-80
2022/03/12 03:27:41;;;;;;;3.40;3.10;;;12.20;99.00;;;;;;7344001;19;108357;-80
2022/03/12 03:30:09;;;;;;;3.38;3.08;;;12.20;99.10;;;;;;7342464;19;109374;-81
2022/03/12 03:32:36;;;;;;;3.45;3.15;;;12.10;99.30;;;;;;7341934;19;110652;-80
2022/03/12 03:35:03;;;;;;;;;;;12.10;99.30;;;;;;7346635;19;109517;-81
2022/03/12 03:37:30;;;;;;;4.43;3.63;;;12.10;99.60;;;;;;7346039;19;110066;-80
2022/03/12 03:39:57;;;;;;;4.03;3.38;;;12.00;99.20;;;;;;7340818;19;108919;-80
2022/03/12 03:42:24;;;;;;;4.75;3.13;;;12.00;99.40;;;;;;7343686;19;109471;-80
2022/03/12 03:44:57;;;;;;;4.10;3.42;;;11.90;99.60;;;;;;7342409;19;112676;-80
2022/03/12 03:47:24;;;;;;;3.63;3.28;;;12.00;99.80;;;;;;7342375;19;108421;-80
2022/03/12 03:49:51;;;;;;;3.95;3.20;;;11.90;99.80;;;;;;7340256;19;111323;-80
2022/03/12 03:52:18;;;;;;;3.72;3.33;;;11.90;99.80;;;;;;7343865;19;113562;-80
2022/03/12 03:54:46;;;;;;;3.70;3.33;;;11.90;99.80;;;;;;7341933;19;108895;-80
2022/03/12 03:57:16;;;;;;;3.83;3.53;;;12.00;99.90;;;;;;7345503;19;110068;-81
2022/03/12 03:59:43;;;;;;;6.03;3.50;;;12.00;99.90;;;;;;7340330;19;108773;-80
2022/03/12 04:02:10;;;;;;;3.67;3.35;;;12.00;99.60;;;;;;7342505;19;109813;-80
2022/03/12 04:04:38;;;;;;;4.20;3.65;;;12.00;99.70;;;;;;7341721;19;110627;-79
2022/03/12 04:07:05;;;;;;;4.28;3.88;;;11.90;99.90;;;;;;7341506;19;109242;-80
2022/03/12 04:09:32;;;;;;;3.97;3.42;;;11.90;99.90;;;;;;7340903;19;109447;-80
2022/03/12 04:11:59;;;;;;;4.38;3.47;;;11.80;99.90;;;;;;7342264;19;110367;-80
2022/03/12 04:14:26;;;;;;;4.22;3.83;;;11.80;99.90;;;;;;7342741;19;111692;-80
2022/03/12 04:16:53;;;;;;;5.03;4.03;;;11.70;99.90;;;;;;7343782;19;113175;-80
2022/03/12 04:19:21;;;;;;;4.07;3.70;;;11.60;99.90;;;;;;7347577;19;112168;-80
2022/03/12 04:21:48;;;;;;;4.20;3.80;;;11.60;99.90;;;;;;7344044;19;109352;-80
2022/03/12 04:24:15;;;;;;;4.05;3.65;;;11.70;99.90;;;;;;7342750;19;110158;-80
2022/03/12 04:26:44;;;;;;;4.63;3.88;;;11.60;99.90;;;;;;7342776;19;110381;-80
2022/03/12 04:29:11;;;;;;;4.47;4.05;;;11.50;99.90;;;;;;7342710;19;110232;-80
2022/03/12 04:31:38;;;;;;;4.43;4.03;;;11.50;99.90;;;;;;7339951;19;110600;-80
2022/03/12 04:34:06;;;;;;;4.80;3.67;;;11.50;99.90;;;;;;7340285;19;108908;-81
2022/03/12 04:36:34;;;;;;;5.00;4.50;;;11.40;99.90;;;;;;7339906;19;109548;-80
2022/03/12 04:39:04;;;;;;;5.05;3.88;;;11.30;99.90;;;;;;7346639;19;113266;-81
2022/03/12 04:41:35;;;;;;;4.70;4.00;;;11.30;99.90;;;;;;7340558;19;109605;-80
2022/03/12 04:44:04;;;;;;;5.00;4.40;;;11.30;99.90;;;;;;7341340;19;110484;-80
2022/03/12 04:46:32;;;;;;;5.88;3.78;;;11.30;99.90;;;;;;7340783;19;108277;-81
2022/03/12 04:48:59;;;;;;;4.97;4.20;;;11.30;99.90;;;;;;7340121;19;109336;-80
2022/03/12 04:51:28;;;;;;;4.78;4.00;;;11.30;99.90;;;;;;7338144;19;110130;-80
2022/03/12 04:53:59;;;;;;;5.43;4.13;;;11.20;99.90;;;;;;7340666;19;108930;-80
2022/03/12 04:56:27;;;;;;;5.82;4.03;;;11.20;99.90;;;;;;7341564;19;110067;-80
2022/03/12 04:58:56;;;;;;;6.00;4.13;;;11.20;99.90;;;;;;7341399;19;110132;-81
2022/03/12 05:01:24;;;;;;;4.43;4.03;;;11.20;99.90;;;;;;7347354;19;108519;-81
2022/03/12 05:03:52;;;;;;;4.72;4.20;;;11.20;99.90;;;;;;7340586;19;109990;-80
2022/03/12 05:06:19;;;;;;;6.47;4.32;;;11.20;99.90;;;;;;7340440;19;111384;-81
2022/03/12 05:08:47;;;;;;;5.43;3.72;;;11.20;99.90;;;;;;7340014;19;109455;-80
2022/03/12 05:11:14;;;;;;;4.65;4.15;;;11.30;99.90;;;;;;7338785;19;111771;-80
2022/03/12 05:13:41;;;;;;;4.85;4.18;;;11.20;99.90;;;;;;7337718;19;111429;-81
2022/03/12 05:16:09;;;;;;;5.00;3.97;;;11.20;99.90;;;;;;7339712;19;112231;-80
2022/03/12 05:18:36;;;;;;;6.30;4.28;;;11.20;99.90;;;;;;7341188;19;113386;-81
2022/03/12 05:21:05;;;;;;;8.88;4.50;;;11.20;99.90;;;;;;7340364;19;109519;-80
2022/03/12 05:23:33;;;;;;;5.65;4.45;;;11.10;99.90;;;;;;7345414;19;109978;-80
2022/03/12 05:26:00;;;;;;;4.72;4.25;;;11.10;99.90;;;;;;7340112;19;108765;-81
2022/03/12 05:28:32;;;;;;;6.65;4.60;;;11.10;99.90;;;;;;7340986;19;109435;-81
2022/03/12 05:31:04;;;;;;;5.10;4.43;;;11.10;99.90;;;;;;7339103;19;110564;-80
2022/03/12 05:33:33;;;;;;;6.90;4.80;;;11.10;99.90;;;;;;7340498;19;108483;-80
2022/03/12 05:36:01;;;;;;;5.05;4.55;;;11.00;99.90;;;;;;7339950;19;109869;-80
2022/03/12 05:38:31;;;;;;;6.32;4.88;;;11.00;99.90;;;;;;7338098;19;110587;-81
2022/03/12 05:40:59;;;;;;;4.85;4.32;;;11.00;99.90;;;;;;7338247;19;108492;-80
2022/03/12 05:43:27;;;;;;;7.28;4.10;;;11.00;99.90;;;;;;7339132;19;109424;-83
2022/03/12 05:45:56;;;;;;;5.10;4.40;;;10.90;99.90;;;;;;7344485;19;110201;-86
2022/03/12 05:48:23;;;;;;;6.25;4.32;;;10.80;99.90;;;;;;7337284;19;109178;-85
2022/03/12 05:50:50;;;;;;;10.13;4.57;;;10.80;99.90;;;;;;7338445;19;109045;-85
2022/03/12 05:53:19;;;;;;;6.18;4.88;;;10.80;99.90;;;;;;7337613;19;109038;-86
2022/03/12 05:55:47;;;;;;;5.57;5.00;;;10.80;99.90;;;;;;7338035;19;109603;-86
2022/03/12 05:58:17;;;;;;;5.93;4.00;;;10.70;99.90;;;;;;7341155;19;110397;-88
2022/03/12 06:00:47;;;;;;;8.27;4.63;;;10.70;99.90;;;;;;7338771;19;109346;-86
2022/03/12 06:03:14;;;;;;;4.85;4.28;;;10.60;99.90;;;;;;7339844;19;110490;-86
2022/03/12 06:05:43;;;;;;;8.63;4.40;;;10.60;99.90;;;;;;7336790;19;110199;-85
2022/03/12 06:08:21;;;;;;;9.00;4.80;;;10.60;99.90;;;;;;7342529;19;108302;-86
2022/03/12 06:10:51;;;;;;;7.00;5.13;;;10.60;99.90;;;;;;7337651;19;113016;-86
2022/03/12 06:13:23;;;;;;;6.38;5.32;;;10.50;99.90;;;;;;7339249;19;108707;-85
2022/03/12 06:15:58;;;;;;;8.82;4.80;;;10.50;99.90;;;;;;7340076;19;110444;-87
2022/03/12 06:18:28;;;;;;;5.97;4.68;;;10.40;99.90;;;;;;7337647;19;110183;-87
2022/03/12 06:20:56;;;;;;;6.32;4.78;;;10.40;99.90;;;;;;7339911;19;109966;-86
2022/03/12 06:23:23;;;;;;;6.07;5.47;;;10.40;99.90;;;;;;7345346;19;110724;-88
2022/03/12 06:25:51;;;;;;;6.07;5.00;;;10.30;99.90;;;;;;7344471;19;110233;-88
2022/03/12 06:28:19;;;;;;;8.35;5.07;;;10.30;99.90;;;;;;7342059;19;109644;-86
2022/03/12 06:30:47;;;;;;;7.00;4.97;;;10.30;99.90;;;;;;7346155;19;108807;-88
2022/03/12 06:33:19;;;;;;;6.10;5.10;;;10.30;99.90;;;;;;7345410;19;108777;-87
2022/03/12 06:35:46;;;;;;;8.05;5.28;;;10.30;99.90;;;;;;7340492;19;109647;-85
2022/03/12 06:38:17;;;;;;;5.40;4.85;;;10.30;99.90;;;;;;7343854;19;110072;-89
2022/03/12 06:40:44;;;;;;;6.57;5.28;;;10.30;99.90;;;;;;7343915;19;109195;-87
2022/03/12 06:43:18;;;;;;;10.77;5.40;;;10.30;99.90;;;;;;7344083;19;110577;-85
2022/03/12 06:45:49;;;;;;;6.95;5.43;;;10.30;99.90;;;;;;7344927;19;110712;-85
2022/03/12 06:48:17;;;;;;;6.60;5.25;;;10.30;99.90;;;;;;7344538;19;108277;-86
2022/03/12 06:50:45;;;;;;;6.88;5.38;;;10.20;99.90;;;;;;7346591;19;109783;-86
2022/03/12 06:53:13;;;;;;;7.03;5.50;;;10.30;99.90;;;;;;7347564;19;108828;-88
2022/03/12 06:55:42;;;;;;;9.60;6.15;;;10.30;99.90;;;;;;7346852;19;109506;-89
2022/03/12 06:58:09;;;;;;;7.45;5.07;;;10.30;99.90;;;;;;7346131;19;109948;-89
2022/03/12 07:00:37;;;;;;;6.13;4.82;;;10.30;99.90;;;;;;7344277;19;108485;-89
2022/03/12 07:03:04;;;;;;;8.07;4.97;;;10.40;99.90;;;;;;7344358;19;109421;-88
2022/03/12 07:05:31;;;;;;;8.82;5.47;;;10.40;99.90;;;;;;7345631;19;110633;-89
2022/03/12 07:07:58;;;;;;;6.53;5.07;;;10.40;99.90;;;;;;7343774;19;108462;-87
2022/03/12 07:10:25;;;;;;;6.88;5.20;;;10.40;99.90;;;;;;7345170;19;110345;-89
2022/03/12 07:12:52;;;;;;;5.38;4.55;;;10.50;99.90;;;;;;7346765;19;109011;-88
2022/03/12 07:15:21;;;;;;;6.35;4.38;;;10.50;99.90;;;;;;7344062;19;109034;-87
2022/03/12 07:17:49;;;;;;;6.65;4.88;;;10.60;99.90;;;;;;7344485;19;111781;-88
2022/03/12 07:20:17;;;;;;;8.20;5.40;;;10.60;99.90;;;;;;7345085;19;110605;-88
2022/03/12 07:22:45;;;;;;;7.53;5.18;;;10.70;99.90;;;;;;7343151;19;109485;-87
2022/03/12 07:25:13;;;;;;;9.95;5.20;;;10.70;99.90;;;;;;7344234;19;110604;-88
2022/03/12 07:27:41;;;;;;;9.23;5.13;;;10.80;99.90;;;;;;7345107;19;108984;-87
2022/03/12 07:30:10;;;;;;;10.07;5.25;;;10.80;99.90;;;;;;7344406;19;109447;-87
2022/03/12 07:32:39;;;;;;;10.85;5.20;;;10.80;99.90;;;;;;7341339;19;110141;-88
2022/03/12 07:35:07;;;;;;;7.20;5.00;;;10.90;99.90;;;;;;7348916;19;108378;-86
2022/03/12 07:37:34;;;;;;;7.45;4.75;;;11.00;99.90;;;;;;7343774;19;110454;-87
2022/03/12 07:40:02;;;;;;;6.63;4.82;;;11.00;99.90;;;;;;7343889;19;108452;-87
2022/03/12 07:42:29;;;;;;;6.47;4.57;;;11.10;99.90;;;;;;7344030;19;109586;-88
2022/03/12 07:44:57;;;;;;;6.72;4.28;;;11.20;99.90;;;;;;7336928;19;112491;-87
2022/03/12 07:47:24;;;;;;;7.95;4.18;;;11.30;99.90;;;;;;7340418;19;109522;-87
2022/03/12 07:49:51;;;;;;;6.18;4.50;;;11.30;99.90;;;;;;7341191;19;112287;-86
2022/03/12 07:52:18;;;;;;;13.27;4.70;;;11.40;99.90;;;;;;7341664;19;110069;-87
2022/03/12 07:54:45;;;;;;;10.18;4.43;;;11.50;99.90;;;;;;7343847;19;108531;-87
2022/03/12 07:57:13;;;;;;;5.80;4.00;;;11.60;99.90;;;;;;7349339;19;110024;-87
2022/03/12 07:59:40;;;;;;;4.88;3.67;;;11.70;99.90;;;;;;7341356;19;109552;-88
2022/03/12 08:02:07;;;;;;;10.40;4.32;;;11.80;99.90;;;;;;7342885;19;109691;-87
2022/03/12 08:04:35;;;;;;;6.65;4.03;;;11.80;99.90;;;;;;7341453;19;109167;-88
2022/03/12 08:07:03;;;;;;;8.18;4.15;;;11.90;99.90;;;;;;7341521;19;109452;-86
2022/03/12 08:09:32;;;;;;;7.60;3.30;;;12.00;99.90;;;;;;7341041;19;109806;-87
2022/03/12 08:12:00;;;;;;;7.78;3.65;;;12.10;99.90;;;;;;7339150;19;110193;-87
2022/03/12 08:14:28;;;;;;;7.38;3.95;;;12.20;99.90;;;;;;7342661;19;108559;-87
2022/03/12 08:16:55;;;;;;;10.85;4.05;;;12.30;99.90;;;;;;7341059;19;109580;-85
2022/03/12 08:19:22;;;;;;;7.80;3.30;;;12.40;99.90;;;;;;7346483;19;110452;-87
2022/03/12 08:21:51;;;;;;;6.93;2.88;;;12.40;99.90;;;;;;7342507;19;109591;-88
2022/03/12 08:24:19;;;;;;;11.05;2.97;;;12.50;99.90;;;;;;7342652;19;110593;-86
2022/03/12 08:26:48;;;;;;;8.52;3.20;;;12.50;99.90;;;;;;7341388;19;108414;-85
2022/03/12 08:29:18;;;;;;;5.85;2.90;;;12.60;99.90;;;;;;7343222;19;109731;-86
2022/03/12 08:31:46;;;;;;;5.88;3.05;;;12.60;99.90;;;;;;7338929;19;110963;-87
2022/03/12 08:34:14;;;;;;;8.20;3.55;;;12.70;99.90;;;;;;7341449;19;108845;-84
2022/03/12 08:36:42;;;;;;;9.95;2.75;;;12.60;99.90;;;;;;7339573;19;110552;-86
2022/03/12 08:39:11;;;;;;;9.43;2.70;;;12.70;99.90;;;;;;7339421;19;110490;-86
2022/03/12 08:41:39;;;;;;;6.25;2.88;;;12.70;99.90;;;;;;7347267;19;108430;-86
2022/03/12 08:44:08;;;;;;;7.88;2.95;;;12.80;99.90;;;;;;7338288;19;110103;-85
2022/03/12 08:46:37;;;;;;;5.35;2.70;;;12.90;99.90;;;;;;7341860;19;108525;-86
2022/03/12 08:49:05;;;;;;;5.30;2.35;;;13.00;99.80;;;;;;7341442;19;109803;-86
2022/03/12 08:51:32;;;;;;;10.65;3.10;;;13.00;99.80;;;;;;7339669;19;109793;-86
2022/03/12 08:54:01;;;;;;;5.45;2.60;;;13.10;99.60;;;;;;7340594;19;108740;-84
2022/03/12 08:56:32;;;;;;;8.15;2.75;;;13.20;99.10;;;;;;7337987;19;108875;-85
2022/03/12 08:58:59;;;;;;;4.80;2.50;;;13.20;99.00;;;;;;7340578;19;110526;-85
2022/03/12 09:01:26;;;;;;;6.80;2.80;;;13.30;99.00;;;;;;7346938;19;108419;-87
2022/03/12 09:03:54;;;;;;;7.32;2.45;;;13.30;98.90;;;;;;7340687;19;109425;-83
2022/03/12 09:06:23;;;;;;;6.57;2.63;;;13.40;98.70;;;;;;7338940;19;110203;-84
2022/03/12 09:08:50;;;;;;;7.18;2.78;;;13.50;98.60;;;;;;7340340;19;110222;-85
2022/03/12 09:11:18;;;;;;;7.85;2.72;;;13.40;98.60;;;;;;7339068;19;110117;-87
2022/03/12 09:13:46;;;;;;;5.40;2.17;;;13.50;98.40;;;;;;7338544;19;110041;-86
2022/03/12 09:16:14;;;;;;;10.32;2.63;;;13.50;98.30;;;;;;7339642;19;109516;-87
2022/03/12 09:18:44;;;;;;;5.38;2.42;;;13.50;98.30;;;;;;7338719;19;113850;-84
2022/03/12 09:21:11;;;;;;;5.40;2.20;;;13.50;98.20;;;;;;7340864;19;108522;-83
2022/03/12 09:23:38;;;;;;;14.52;2.72;;;13.50;98.20;;;;;;7345299;19;109515;-86
2022/03/12 09:26:06;;;;;;;5.78;2.40;;;13.60;98.20;;;;;;7338217;19;108499;-85
2022/03/12 09:28:33;;;;;;;18.73;2.97;;;13.60;97.90;;;;;;7337473;19;109709;-83
2022/03/12 09:31:00;;;;;;;11.85;2.38;;;13.80;97.50;;;;;;7340269;19;110676;-82
2022/03/12 09:33:28;;;;;;;11.60;2.13;;;13.80;97.40;;;;;;7339591;19;109199;-86
2022/03/12 09:35:55;;;;;;;26.20;2.80;;;13.80;97.60;;;;;;7338603;19;109670;-86
2022/03/12 09:38:22;;;;;;;10.70;2.40;;;13.80;97.70;;;;;;7338115;19;110096;-85
2022/03/12 09:40:49;;;;;;;6.70;2.72;;;14.00;97.20;;;;;;7341188;19;108654;-85
2022/03/12 09:43:17;;;;;;;21.83;2.80;;;13.90;97.40;;;;;;7341335;19;109424;-83
2022/03/12 09:45:45;;;;;;;10.02;2.20;;;14.00;97.50;;;;;;7345364;19;111010;-86
2022/03/12 09:48:18;;;;;;;18.42;2.45;;;14.20;97.00;;;;;;7339938;19;109016;-85
2022/03/12 09:50:45;;;;;;;15.93;2.33;;;14.30;96.80;;;;;;7337335;19;110488;-84
2022/03/12 09:53:12;;;;;;;7.18;2.17;;;14.50;96.70;;;;;;7336602;19;108414;-83
2022/03/12 09:55:40;;;;;;;13.43;2.30;;;14.50;96.70;;;;;;7340062;19;110377;-86
2022/03/12 09:58:07;;;;;;;17.25;2.28;;;14.50;96.80;;;;;;7346262;19;109380;-85
2022/03/12 10:00:34;;;;;;;9.88;2.38;;;14.50;96.70;;;;;;7342878;19;109954;-83
2022/03/12 10:03:02;;;;;;;6.70;2.75;;;14.70;96.70;;;;;;7346569;19;109772;-83
2022/03/12 10:05:30;;;;;;;6.60;2.30;;;14.70;96.40;;;;;;7345784;19;112830;-83
2022/03/12 10:07:57;;;;;;;8.85;2.47;;;14.80;96.20;;;;;;7348842;19;108220;-84
2022/03/12 10:10:25;;;;;;;5.28;2.10;;;14.80;95.50;;;;;;7344281;19;110472;-84
2022/03/12 10:12:52;;;;;;;5.43;1.98;;;14.80;95.70;;;;;;7343736;19;108328;-83
2022/03/12 10:15:19;;;;;;;7.63;2.45;;;14.80;95.40;;;;;;7345494;19;112818;-82
2022/03/12 10:17:48;;;;;;;7.75;1.77;;;14.90;95.60;;;;;;7345638;19;110313;-84
2022/03/12 10:20:16;;;;;;;8.30;1.65;;;14.90;95.50;;;;;;7341913;19;108620;-84
2022/03/12 10:22:45;;;;;;;7.75;2.20;;;15.00;95.10;;;;;;7344521;19;109425;-83
2022/03/12 10:25:14;;;;;;;8.13;2.08;;;15.00;94.90;;;;;;7346134;19;110927;-83
2022/03/12 10:27:41;;;;;;;5.50;2.08;;;15.00;95.10;;;;;;7344893;19;108428;-86
2022/03/12 10:30:12;;;;;;;7.35;2.38;;;15.10;95.10;;;;;;7351099;19;109438;-86
2022/03/12 10:32:47;;;;;;;3.25;1.58;;;15.20;95.00;;;;;;7345211;19;108505;-87
2022/03/12 10:35:18;;;;;;;9.98;1.80;;;15.20;94.90;;;;;;7343874;19;109797;-84
2022/03/12 10:37:48;;;;;;;7.93;2.30;;;15.40;94.60;;;;;;7340247;19;108991;-86
2022/03/12 10:40:18;;;;;;;6.65;1.75;;;15.40;94.70;;;;;;7344908;19;109200;-84
2022/03/12 10:43:01;;;;;;;8.55;1.95;;;15.50;94.40;;;;;;7341024;19;109783;-85
2022/03/12 10:45:30;;;;;;;4.68;1.73;;;15.60;94.20;;;;;;7342858;19;110912;-85
2022/03/12 10:48:02;;;;;;;10.32;2.10;;;15.70;94.50;;;;;;7344324;19;109125;-84
2022/03/12 10:50:38;;;;;;;11.60;2.10;;;15.80;94.30;;;;;;7350413;19;109281;-85
2022/03/12 10:53:07;;;;;;;5.63;1.90;;;15.90;93.70;;;;;;7342346;19;108933;-85
2022/03/12 10:55:38;;;;;;;6.22;1.42;;;16.10;93.10;;;;;;7345231;19;109542;-85
2022/03/12 10:58:08;;;;;;;4.25;1.90;;;16.10;92.70;;;;;;7343998;19;109706;-85
2022/03/12 11:00:56;;;;;;;5.20;1.73;;;16.20;92.70;;;;;;7342865;19;108789;-86
2022/03/12 11:03:35;;;;;;;6.20;1.80;;;16.20;92.80;;;;;;7344579;19;109844;-85
2022/03/12 11:06:08;;;;;;;5.75;1.60;;;16.20;92.40;;;;;;7343999;19;110231;-86
2022/03/12 11:08:35;;;;;;;5.45;1.50;;;16.30;92.00;;;;;;7341381;19;111172;-86
2022/03/12 11:11:11;;;;;;;7.60;1.50;;;16.30;92.40;;;;;;7342370;19;109786;-85
2022/03/12 11:13:44;;;;;;;5.25;1.90;;;16.50;92.00;;;;;;7346328;19;110465;-85
2022/03/12 11:16:14;;;;;;;8.38;1.77;;;16.50;92.00;;;;;;7341729;19;109565;-86
2022/03/12 11:18:50;;;;;;;5.72;1.50;;;16.60;91.80;;;;;;7343894;19;110166;-86
2022/03/12 11:21:50;;;;;;;5.88;1.55;;;16.70;91.50;;;;;;7343002;19;110096;-86
2022/03/12 11:24:41;;;;;;;5.40;1.83;;;16.80;91.40;;;;;;7344936;19;108771;-85
2022/03/12 11:27:13;;;;;;;5.85;1.48;;;16.80;90.80;;;;;;7342138;19;109225;-85
2022/03/12 11:29:41;;;;;;;6.60;1.30;;;16.90;90.40;;;;;;7343283;19;108652;-86
2022/03/12 11:32:09;;;;;;;3.67;1.33;;;17.00;90.50;;;;;;7342997;19;108672;-86
2022/03/12 11:34:41;;;;;;;3.95;1.55;;;17.00;90.20;;;;;;7341044;19;111058;-86
2022/03/12 11:37:15;;;;;;;5.13;1.80;;;17.10;90.00;;;;;;7344186;19;112968;-87
2022/03/12 11:39:48;;;;;;;6.75;1.55;;;17.20;90.00;;;;;;7343596;19;110573;-85
2022/03/12 11:42:20;;;;;;;4.45;1.55;;;17.20;89.80;;;;;;7337474;19;108598;-86
2022/03/12 11:44:51;;;;;;;5.72;1.70;;;17.30;89.70;;;;;;7341219;19;109396;-87
2022/03/12 11:47:24;;;;;;;18.48;1.60;;;17.40;89.10;;;;;;7343559;19;109552;-87
2022/03/12 11:49:54;;;;;;;6.40;1.70;;;17.50;89.00;;;;;;7341655;19;109178;-86
2022/03/12 11:52:21;;;;;;;8.55;1.23;;;17.70;86.70;;;;;;7342780;19;109745;-87
2022/03/12 11:54:54;;;;;;;5.38;1.33;;;17.70;88.10;;;;;;7340376;19;110683;-85
2022/03/12 11:57:27;;;;;;;5.40;1.67;;;17.80;87.60;;;;;;7341749;19;109272;-86
2022/03/12 11:59:57;;;;;;;7.38;1.35;;;17.90;86.50;;;;;;7347314;19;110186;-87
2022/03/12 12:02:35;;;;;;;7.07;1.30;;;18.00;84.60;;;;;;7343290;19;109900;-87
2022/03/12 12:05:12;;;;;;;6.10;1.50;;;18.00;84.20;;;;;;7342738;19;109424;-91
2022/03/12 12:07:45;;;;;;;5.80;1.48;;;18.00;84.30;;;;;;7340684;19;112931;-92
2022/03/12 12:10:15;;;;;;;5.10;1.60;;;17.90;84.50;;;;;;7342531;19;108696;-90
2022/03/12 12:12:46;;;;;;;6.43;1.52;;;17.80;84.40;;;;;;7342019;19;109543;-88
2022/03/12 12:15:22;;;;;;;6.15;1.30;;;17.80;84.50;;;;;;7338918;19;110193;-86
2022/03/12 12:17:50;;;;;;;8.85;1.55;;;17.70;84.10;;;;;;7336434;19;109825;-87
2022/03/12 12:20:20;;;;;;;4.13;1.42;;;17.70;84.30;;;;;;7332709;19;111222;-86
2022/03/12 12:22:53;;;;;;;4.03;1.20;;;17.70;85.30;;;;;;7347995;19;109825;-86
2022/03/12 12:25:20;;;;;;;6.63;1.30;;;17.80;84.80;;;;;;7340329;19;109372;-87
2022/03/12 12:27:50;;;;;;;4.85;1.25;;;17.80;84.00;;;;;;7342452;19;110827;-87
2022/03/12 12:30:42;;;;;;;5.72;1.13;;;17.80;84.50;;;;;;7343045;19;109459;-86
2022/03/12 12:33:19;;;;;;;8.43;1.38;;;17.90;84.30;;;;;;7340133;19;109290;-87
2022/03/12 12:35:48;;;;;;;6.30;1.40;;;17.90;84.30;;;;;;7340711;19;111700;-86
2022/03/12 12:38:18;;;;;;;12.80;1.67;;;18.00;84.10;;;;;;7341496;19;110108;-86
2022/03/12 12:40:51;;;;;;;10.05;1.20;;;18.00;84.40;;;;;;7342383;19;109743;-88
2022/03/12 12:43:31;;;;;;;8.43;1.40;;;18.20;83.50;;;;;;7340848;19;109109;-87
2022/03/12 12:46:01;;;;;;;9.88;1.30;;;18.20;83.00;;;;;;7346970;19;109529;-87